createdAt,value
2023-02-24T00:01:52.285Z,22.10
2023-02-24T00:04:20.726Z,23.63
2023-02-24T00:06:48.006Z,20.80
2023-02-24T00:09:20.734Z,19.52
2023-02-24T00:12:08.757Z,19.52
2023-02-24T00:14:37.813Z,19.50
2023-02-24T00:17:06.158Z,20.75
2023-02-24T00:19:32.822Z,19.27
2023-02-24T00:22:01.868Z,19.63
2023-02-24T00:24:28.795Z,19.90
2023-02-24T00:26:59.317Z,19.80
2023-02-24T00:29:26.873Z,20.52
2023-02-24T00:32:00.783Z,19.40
2023-02-24T00:34:33.427Z,20.25
2023-02-24T00:37:00.104Z,19.67
2023-02-24T00:39:30.897Z,19.65
2023-02-24T00:42:04.236Z,18.40
2023-02-24T00:44:32.996Z,19.90
2023-02-24T00:47:01.458Z,20.08
2023-02-24T00:49:29.118Z,19.45
2023-02-24T00:51:57.122Z,19.73
2023-02-24T00:54:27.949Z,18.98
2023-02-24T00:56:55.559Z,19.83
2023-02-24T00:59:24.035Z,20.02
2023-02-24T01:01:51.227Z,22.23
2023-02-24T01:04:19.852Z,17.25
2023-02-24T01:06:50.201Z,17.45
2023-02-24T01:09:20.846Z,18.98
2023-02-24T01:12:08.476Z,19.25
2023-02-24T01:14:36.010Z,19.25
2023-02-24T01:17:04.639Z,20.27
2023-02-24T01:19:32.566Z,18.85
2023-02-24T01:22:06.713Z,19.08
2023-02-24T01:24:37.049Z,19.23
2023-02-24T01:27:04.071Z,20.52
2023-02-24T01:29:30.900Z,18.35
2023-02-24T01:31:58.591Z,18.73
2023-02-24T01:34:26.781Z,19.67
2023-02-24T01:36:53.603Z,19.33
2023-02-24T01:39:20.645Z,18.38
2023-02-24T01:41:49.788Z,21.92
2023-02-24T01:44:22.253Z,20.05
2023-02-24T01:46:51.543Z,21.60
2023-02-24T01:49:34.024Z,18.97
2023-02-24T01:52:05.682Z,20.98
2023-02-24T01:54:35.386Z,19.67
2023-02-24T01:57:05.776Z,20.50
2023-02-24T01:59:35.470Z,21.25
2023-02-24T02:02:05.364Z,20.65
2023-02-24T02:04:40.286Z,20.23
2023-02-24T02:07:10.123Z,21.63
2023-02-24T02:09:38.282Z,22.92
2023-02-24T02:12:04.781Z,22.75
2023-02-24T02:14:32.009Z,21.30
2023-02-24T02:17:26.040Z,21.88
2023-02-24T02:20:16.037Z,20.90
2023-02-24T02:23:15.822Z,20.50
2023-02-24T02:26:03.619Z,22.45
2023-02-24T02:29:03.803Z,21.15
2023-02-24T02:31:39.445Z,21.20
2023-02-24T02:34:28.768Z,21.83
2023-02-24T02:37:12.160Z,21.00
2023-02-24T02:40:00.256Z,20.48
2023-02-24T02:42:33.520Z,20.88
2023-02-24T02:45:08.643Z,20.55
2023-02-24T02:47:43.201Z,21.35
2023-02-24T02:50:12.874Z,18.35
2023-02-24T02:52:47.463Z,19.50
2023-02-24T02:55:53.382Z,21.38
2023-02-24T02:58:26.093Z,20.33
2023-02-24T03:01:02.359Z,19.73
2023-02-24T03:03:36.903Z,18.88
2023-02-24T03:06:17.150Z,18.55
2023-02-24T03:08:52.452Z,20.95
2023-02-24T03:11:20.778Z,19.25
2023-02-24T03:13:49.631Z,19.42
2023-02-24T03:16:18.159Z,21.73
2023-02-24T03:18:56.524Z,19.80
2023-02-24T03:21:45.614Z,18.95
2023-02-24T03:24:15.521Z,19.52
2023-02-24T03:26:51.904Z,17.40
2023-02-24T03:29:30.440Z,19.58
2023-02-24T03:32:15.335Z,20.42
2023-02-24T03:34:56.723Z,20.95
2023-02-24T03:37:28.152Z,21.63
2023-02-24T03:39:58.843Z,21.05
2023-02-24T03:42:31.100Z,19.38
2023-02-24T03:44:58.367Z,20.08
2023-02-24T03:47:26.295Z,21.27
2023-02-24T03:49:53.168Z,19.73
2023-02-24T03:52:49.667Z,18.30
2023-02-24T03:55:58.843Z,19.52
2023-02-24T03:58:51.933Z,19.98
2023-02-24T04:01:36.396Z,18.55
2023-02-24T04:04:16.849Z,21.08
2023-02-24T04:06:58.021Z,20.15
2023-02-24T04:09:46.611Z,20.45
2023-02-24T04:12:27.035Z,19.92
2023-02-24T04:15:04.606Z,20.17
2023-02-24T04:20:20.850Z,21.38
2023-02-24T04:22:59.529Z,22.65
2023-02-24T04:25:27.950Z,23.60
2023-02-24T04:28:00.601Z,22.88
2023-02-24T04:30:31.909Z,20.75
2023-02-24T04:32:58.422Z,21.10
2023-02-24T04:35:27.062Z,21.02
2023-02-24T04:37:55.456Z,19.63
2023-02-24T04:40:22.962Z,19.15
2023-02-24T04:42:51.717Z,22.02
2023-02-24T04:45:19.410Z,20.15
2023-02-24T04:47:49.303Z,19.98
2023-02-24T04:50:22.799Z,20.20
2023-02-24T04:52:54.661Z,20.50
2023-02-24T04:55:23.872Z,21.27
2023-02-24T04:57:53.612Z,19.67
2023-02-24T05:00:21.810Z,21.95
2023-02-24T05:02:52.378Z,20.65
2023-02-24T05:05:25.424Z,22.75
2023-02-24T05:10:19.627Z,20.80
2023-02-24T05:12:46.153Z,22.10
2023-02-24T05:15:12.808Z,22.10
2023-02-24T05:17:40.728Z,22.83
2023-02-24T05:20:27.550Z,21.00
2023-02-24T05:22:54.003Z,21.08
2023-02-24T05:25:21.418Z,22.42
2023-02-24T05:27:47.818Z,19.52
2023-02-24T05:30:14.488Z,18.55
2023-02-24T05:32:41.333Z,20.80
2023-02-24T05:35:08.564Z,21.55
2023-02-24T05:37:41.827Z,20.90
2023-02-24T05:40:13.128Z,20.33
2023-02-24T05:42:41.179Z,20.05
2023-02-24T05:45:10.911Z,21.05
2023-02-24T05:47:38.538Z,19.13
2023-02-24T05:50:05.241Z,21.88
2023-02-24T05:52:31.630Z,20.17
2023-02-24T05:55:00.346Z,17.20
2023-02-24T05:57:32.728Z,19.95
2023-02-24T05:59:59.160Z,19.00
2023-02-24T06:02:29.113Z,20.48
2023-02-24T06:04:55.623Z,19.50
2023-02-24T06:07:34.154Z,19.00
2023-02-24T06:10:01.809Z,18.85
2023-02-24T06:12:34.058Z,19.88
2023-02-24T06:15:02.111Z,20.35
2023-02-24T06:17:29.016Z,18.33
2023-02-24T06:19:55.923Z,20.88
2023-02-24T06:22:24.208Z,22.77
2023-02-24T06:24:50.744Z,20.75
2023-02-24T06:27:21.292Z,24.83
2023-02-24T06:29:49.946Z,23.90
2023-02-24T06:32:21.549Z,22.48
2023-02-24T06:34:48.039Z,18.90
2023-02-24T06:37:15.734Z,21.70
2023-02-24T06:39:43.162Z,19.83
2023-02-24T06:42:11.733Z,21.45
2023-02-24T06:44:40.213Z,20.70
2023-02-24T06:47:10.482Z,19.15
2023-02-24T06:49:37.426Z,21.85
2023-02-24T06:52:04.438Z,20.17
2023-02-24T06:54:35.603Z,19.10
2023-02-24T06:57:05.357Z,19.80
2023-02-24T06:59:32.304Z,21.20
2023-02-24T07:02:01.640Z,18.35
2023-02-24T07:04:29.057Z,19.35
2023-02-24T07:06:58.327Z,19.85
2023-02-24T07:09:26.962Z,20.30
2023-02-24T07:11:55.778Z,21.08
2023-02-24T07:14:27.785Z,20.58
2023-02-24T07:16:55.014Z,24.93
2023-02-24T07:19:30.578Z,26.27
2023-02-24T07:22:03.505Z,24.60
2023-02-24T07:27:06.067Z,23.23
2023-02-24T07:29:35.678Z,22.48
2023-02-24T07:32:05.481Z,25.50
2023-02-24T07:34:33.624Z,22.13
2023-02-24T07:37:07.618Z,24.20
2023-02-24T07:39:36.659Z,21.42
2023-02-24T07:42:03.245Z,23.45
2023-02-24T07:44:38.851Z,24.38
2023-02-24T07:47:08.002Z,23.42
2023-02-24T07:49:34.719Z,23.25
2023-02-24T07:52:01.826Z,25.42
2023-02-24T07:54:29.963Z,22.50
2023-02-24T07:56:58.809Z,23.25
2023-02-24T07:59:30.245Z,22.45
2023-02-24T08:01:57.174Z,23.50
2023-02-24T08:04:26.658Z,23.38
2023-02-24T08:06:56.680Z,23.35
2023-02-24T08:09:48.547Z,21.60
2023-02-24T08:12:18.022Z,23.42
2023-02-24T08:14:50.499Z,24.17
2023-02-24T08:17:22.962Z,23.52
2023-02-24T08:20:00.866Z,22.40
2023-02-24T08:22:35.249Z,22.42
2023-02-24T08:25:05.714Z,20.55
2023-02-24T08:27:38.664Z,21.45
2023-02-24T08:30:07.616Z,19.67
2023-02-24T08:32:38.649Z,21.23
2023-02-24T08:35:14.865Z,23.60
2023-02-24T08:37:47.362Z,21.60
2023-02-24T08:40:32.978Z,21.98
2023-02-24T08:43:00.992Z,20.52
2023-02-24T08:45:33.344Z,20.10
2023-02-24T08:48:18.059Z,15.82
2023-02-24T08:50:48.916Z,22.48
2023-02-24T08:53:19.043Z,21.77
2023-02-24T08:55:46.623Z,20.77
2023-02-24T08:58:18.347Z,20.92
2023-02-24T09:00:49.435Z,22.00
2023-02-24T09:03:27.882Z,20.67
2023-02-24T09:06:06.161Z,20.40
2023-02-24T09:08:34.148Z,19.17
2023-02-24T09:11:07.628Z,19.17
2023-02-24T09:13:42.931Z,20.55
2023-02-24T09:16:16.301Z,19.10
2023-02-24T09:18:43.415Z,22.13
2023-02-24T09:21:36.703Z,18.92
2023-02-24T09:24:07.481Z,20.05
2023-02-24T09:26:43.101Z,20.35
2023-02-24T09:29:31.728Z,17.92
2023-02-24T09:32:04.419Z,18.23
2023-02-24T09:34:37.166Z,19.60
2023-02-24T09:37:04.753Z,17.77
2023-02-24T09:39:55.063Z,19.63
2023-02-24T09:42:28.157Z,19.65
2023-02-24T09:47:39.675Z,17.73
2023-02-24T09:51:02.236Z,17.77
2023-02-24T09:53:41.341Z,18.05
2023-02-24T09:56:21.869Z,17.60
2023-02-24T09:58:58.498Z,18.95
2023-02-24T10:02:02.107Z,18.33
2023-02-24T10:04:53.748Z,18.88
2023-02-24T10:07:38.181Z,19.58
2023-02-24T10:10:27.905Z,17.08
2023-02-24T10:13:14.897Z,17.85
2023-02-24T10:15:58.008Z,21.75
2023-02-24T10:18:29.994Z,17.65
2023-02-24T10:21:03.877Z,18.40
2023-02-24T10:23:44.975Z,18.15
2023-02-24T10:26:31.622Z,15.93
2023-02-24T10:29:30.976Z,13.40
2023-02-24T10:32:17.498Z,15.20
2023-02-24T10:34:44.633Z,15.77
2023-02-24T10:37:27.657Z,14.70
2023-02-24T10:40:09.362Z,13.93
2023-02-24T10:42:44.361Z,13.50
2023-02-24T10:45:27.238Z,15.20
2023-02-24T10:47:59.277Z,13.65
2023-02-24T10:50:55.444Z,15.50
2023-02-24T10:53:29.642Z,14.20
2023-02-24T10:56:17.709Z,12.35
2023-02-24T10:58:53.627Z,16.45
2023-02-24T11:01:42.981Z,14.43
2023-02-24T11:04:33.078Z,15.10
2023-02-24T11:07:10.226Z,13.75
2023-02-24T11:09:45.495Z,13.93
2023-02-24T11:12:35.132Z,13.27
2023-02-24T11:15:25.116Z,14.45
2023-02-24T11:17:59.301Z,13.90
2023-02-24T11:20:48.862Z,13.65
2023-02-24T11:23:23.723Z,14.32
2023-02-24T11:25:59.138Z,13.48
2023-02-24T11:28:50.320Z,14.25
2023-02-24T11:31:28.769Z,14.10
2023-02-24T11:34:07.546Z,14.40
2023-02-24T11:36:46.023Z,13.73
2023-02-24T11:39:30.834Z,14.95
2023-02-24T11:42:02.044Z,14.15
2023-02-24T11:45:07.275Z,17.05
2023-02-24T11:47:45.241Z,14.43
2023-02-24T11:50:23.892Z,14.23
2023-02-24T11:52:52.747Z,14.63
2023-02-24T11:55:36.028Z,13.75
2023-02-24T12:00:51.475Z,13.50
2023-02-24T12:03:29.734Z,15.50
2023-02-24T12:06:09.399Z,13.75
2023-02-24T12:08:38.988Z,14.40
2023-02-24T12:11:13.085Z,14.85
2023-02-24T12:13:45.569Z,14.75
2023-02-24T12:16:24.182Z,13.93
2023-02-24T12:18:58.975Z,13.98
2023-02-24T12:21:31.485Z,16.95
2023-02-24T12:23:59.203Z,14.45
2023-02-24T12:26:30.765Z,16.20
2023-02-24T12:29:29.897Z,15.57
2023-02-24T12:32:10.792Z,15.45
2023-02-24T12:35:07.423Z,13.50
2023-02-24T12:37:45.659Z,14.05
2023-02-24T12:40:35.238Z,13.32
2023-02-24T12:43:25.164Z,13.70
2023-02-24T12:46:01.118Z,14.05
2023-02-24T12:48:56.573Z,12.50
2023-02-24T12:51:33.882Z,11.95
2023-02-24T12:54:28.823Z,11.85
2023-02-24T12:57:11.705Z,11.57
2023-02-24T12:59:40.373Z,12.15
2023-02-24T13:02:36.570Z,12.32
2023-02-24T13:05:16.344Z,10.82
2023-02-24T13:08:12.146Z,10.73
2023-02-24T13:10:56.987Z,9.18
2023-02-24T13:13:40.177Z,9.90
2023-02-24T13:16:06.629Z,10.13
2023-02-24T13:18:36.246Z,11.68
2023-02-24T13:21:14.567Z,10.32
2023-02-24T13:23:42.800Z,10.95
2023-02-24T13:26:10.406Z,11.07
2023-02-24T13:28:38.359Z,10.38
2023-02-24T13:31:08.821Z,9.70
2023-02-24T13:33:40.917Z,9.93
2023-02-24T13:36:07.261Z,10.07
2023-02-24T13:38:33.590Z,9.30
2023-02-24T13:41:07.646Z,9.60
2023-02-24T13:43:34.058Z,10.23
2023-02-24T13:46:04.593Z,10.50
2023-02-24T13:48:50.170Z,12.73
2023-02-24T13:51:52.640Z,12.82
2023-02-24T13:54:43.567Z,12.55
2023-02-24T13:57:37.606Z,11.65
2023-02-24T14:00:35.070Z,12.23
2023-02-24T14:03:10.077Z,12.30
2023-02-24T14:05:37.111Z,13.18
2023-02-24T14:08:04.826Z,13.48
2023-02-24T14:10:34.525Z,11.80
2023-02-24T14:13:16.535Z,12.55
2023-02-24T14:15:45.557Z,14.20
2023-02-24T14:18:22.476Z,12.27
2023-02-24T14:20:48.944Z,12.38
2023-02-24T14:23:33.310Z,13.80
2023-02-24T14:26:18.432Z,13.30
2023-02-24T14:28:53.692Z,14.05
2023-02-24T14:31:23.234Z,14.43
2023-02-24T14:34:00.557Z,13.25
2023-02-24T14:36:35.451Z,12.98
2023-02-24T14:39:30.726Z,12.48
2023-02-24T14:42:10.746Z,11.98
2023-02-24T14:44:43.318Z,12.43
2023-02-24T14:47:14.321Z,11.80
2023-02-24T14:49:41.676Z,11.85
2023-02-24T14:52:28.397Z,21.30
2023-02-24T14:55:16.490Z,10.00
2023-02-24T14:57:52.953Z,8.98
2023-02-24T15:00:24.802Z,10.50
2023-02-24T15:02:58.040Z,9.00
2023-02-24T15:07:51.948Z,9.90
2023-02-24T15:10:25.599Z,9.65
2023-02-24T15:13:00.854Z,10.00
2023-02-24T15:15:36.576Z,10.15
2023-02-24T15:18:11.194Z,9.40
2023-02-24T15:20:40.671Z,9.48
2023-02-24T15:23:26.279Z,9.10
2023-02-24T15:25:52.788Z,9.80
2023-02-24T15:28:34.527Z,9.52
2023-02-24T15:31:09.091Z,10.60
2023-02-24T15:33:40.386Z,10.00
2023-02-24T15:36:19.889Z,8.55
2023-02-24T15:38:51.012Z,9.30
2023-02-24T15:41:17.385Z,9.13
2023-02-24T15:43:45.376Z,8.45
2023-02-24T15:46:35.773Z,8.70
2023-02-24T15:49:04.558Z,8.70
2023-02-24T15:51:37.148Z,8.18
2023-02-24T15:54:07.650Z,7.93
2023-02-24T15:56:35.585Z,8.80
2023-02-24T15:59:03.255Z,10.15
2023-02-24T16:01:30.852Z,9.27
2023-02-24T16:04:21.881Z,7.57
2023-02-24T16:07:28.337Z,6.60
2023-02-24T16:09:57.210Z,8.07
2023-02-24T16:12:34.419Z,7.10
2023-02-24T16:15:04.134Z,7.68
2023-02-24T16:17:34.461Z,8.27
2023-02-24T16:20:02.520Z,7.40
2023-02-24T16:22:29.335Z,7.90
2023-02-24T16:24:55.981Z,7.80
2023-02-24T16:27:25.969Z,8.82
2023-02-24T16:29:53.024Z,8.98
2023-02-24T16:32:22.065Z,8.43
2023-02-24T16:34:51.849Z,7.45
2023-02-24T16:37:29.365Z,7.22
2023-02-24T16:39:57.992Z,7.22
2023-02-24T16:42:24.377Z,6.85
2023-02-24T16:44:51.203Z,8.80
2023-02-24T16:47:21.810Z,8.23
2023-02-24T16:49:48.611Z,7.78
2023-02-24T16:52:18.885Z,8.70
2023-02-24T16:54:45.845Z,8.77
2023-02-24T16:57:12.226Z,7.65
2023-02-24T16:59:38.634Z,8.80
2023-02-24T17:02:05.212Z,7.85
2023-02-24T17:04:31.981Z,7.78
2023-02-24T17:06:58.581Z,7.47
2023-02-24T17:09:25.762Z,7.95
2023-02-24T17:11:52.123Z,6.97
2023-02-24T17:14:20.249Z,8.05
2023-02-24T17:16:47.525Z,8.05
2023-02-24T17:19:14.464Z,7.47
2023-02-24T17:21:45.067Z,8.63
2023-02-24T17:24:19.926Z,8.10
2023-02-24T17:26:46.499Z,7.55
2023-02-24T17:29:14.390Z,8.00
2023-02-24T17:31:42.100Z,8.05
2023-02-24T17:34:09.282Z,6.75
2023-02-24T17:36:35.788Z,6.93
2023-02-24T17:39:02.309Z,7.20
2023-02-24T17:41:29.515Z,6.35
2023-02-24T17:43:55.935Z,7.10
2023-02-24T17:46:22.869Z,7.70
2023-02-24T17:48:49.526Z,7.32
2023-02-24T17:51:17.753Z,7.43
2023-02-24T17:53:44.372Z,7.05
2023-02-24T17:56:11.333Z,6.82
2023-02-24T17:58:38.652Z,7.05
2023-02-24T18:01:06.503Z,7.78
2023-02-24T18:03:34.936Z,7.47
2023-02-24T18:06:05.344Z,8.13
2023-02-24T18:08:33.897Z,6.85
2023-02-24T18:11:00.816Z,7.32
2023-02-24T18:13:29.072Z,7.82
2023-02-24T18:15:55.948Z,7.80
2023-02-24T18:18:23.227Z,7.35
2023-02-24T18:20:49.612Z,6.97
2023-02-24T18:23:16.060Z,7.32
2023-02-24T18:25:42.487Z,6.80
2023-02-24T18:28:09.002Z,7.93
2023-02-24T18:30:38.535Z,7.70
2023-02-24T18:33:05.107Z,7.22
2023-02-24T18:35:31.690Z,6.35
2023-02-24T18:37:58.117Z,6.70
2023-02-24T18:40:26.013Z,7.88
2023-02-24T18:42:52.651Z,7.43
2023-02-24T18:45:19.853Z,8.63
2023-02-24T18:47:46.964Z,8.25
2023-02-24T18:50:14.514Z,7.53
2023-02-24T18:52:41.105Z,7.50
2023-02-24T18:55:08.270Z,13.25
2023-02-24T18:57:34.947Z,10.65
2023-02-24T19:00:04.671Z,15.82
2023-02-24T19:02:31.148Z,27.33
2023-02-24T19:04:57.571Z,15.43
2023-02-24T19:07:24.110Z,10.93
2023-02-24T19:09:50.559Z,8.98
2023-02-24T19:12:18.030Z,7.88
2023-02-24T19:14:44.740Z,8.52
2023-02-24T19:17:11.176Z,7.40
2023-02-24T19:19:39.258Z,8.75
2023-02-24T19:22:05.618Z,15.25
2023-02-24T19:24:32.002Z,10.02
2023-02-24T19:26:58.386Z,9.48
2023-02-24T19:29:27.049Z,22.30
2023-02-24T19:31:57.507Z,19.13
2023-02-24T19:34:24.205Z,10.82
2023-02-24T19:36:50.652Z,8.68
2023-02-24T19:39:17.181Z,8.15
2023-02-24T19:41:44.130Z,7.50
2023-02-24T19:44:10.993Z,7.63
2023-02-24T19:46:37.721Z,7.57
2023-02-24T19:49:04.624Z,7.07
2023-02-24T19:51:31.938Z,7.15
2023-02-24T19:54:00.360Z,7.25
2023-02-24T19:56:32.533Z,7.65
2023-02-24T19:59:00.698Z,6.32
2023-02-24T20:01:28.794Z,7.85
2023-02-24T20:04:00.837Z,7.82
2023-02-24T20:06:35.645Z,9.25
2023-02-24T20:09:05.433Z,7.80
2023-02-24T20:11:35.194Z,7.60
2023-02-24T20:14:01.740Z,7.55
2023-02-24T20:16:32.316Z,8.55
2023-02-24T20:18:59.981Z,7.32
2023-02-24T20:21:26.429Z,9.07
2023-02-24T20:23:53.216Z,7.90
2023-02-24T20:26:20.667Z,9.13
2023-02-24T20:28:47.473Z,8.70
2023-02-24T20:31:18.409Z,9.20
2023-02-24T20:33:47.024Z,9.77
2023-02-24T20:36:20.609Z,8.95
2023-02-24T20:38:47.815Z,7.80
2023-02-24T20:41:15.488Z,8.32
2023-02-24T20:43:41.905Z,8.80
2023-02-24T20:46:19.850Z,10.65
2023-02-24T20:48:46.342Z,9.77
2023-02-24T20:51:12.724Z,9.85
2023-02-24T20:53:54.607Z,9.40
2023-02-24T20:56:24.031Z,9.60
2023-02-24T20:59:01.218Z,8.25
2023-02-24T21:01:30.083Z,10.15
2023-02-24T21:03:56.930Z,10.18
2023-02-24T21:06:23.989Z,10.02
2023-02-24T21:08:53.088Z,9.63
2023-02-24T21:11:20.673Z,10.00
2023-02-24T21:13:48.907Z,10.00
2023-02-24T21:16:17.123Z,9.82
2023-02-24T21:18:45.294Z,9.43
2023-02-24T21:21:12.573Z,9.95
2023-02-24T21:23:39.422Z,9.75
2023-02-24T21:26:06.706Z,9.95
2023-02-24T21:28:33.851Z,10.50
2023-02-24T21:31:00.540Z,9.43
2023-02-24T21:33:27.421Z,10.13
2023-02-24T21:36:06.502Z,9.70
2023-02-24T21:38:34.299Z,9.45
2023-02-24T21:41:03.118Z,11.82
2023-02-24T21:43:29.902Z,10.23
2023-02-24T21:45:56.782Z,11.10
2023-02-24T21:48:23.319Z,12.15
2023-02-24T21:50:58.181Z,10.40
2023-02-24T21:53:27.390Z,11.23
2023-02-24T21:56:16.096Z,9.50
2023-02-24T21:58:45.985Z,9.68
2023-02-24T22:01:15.034Z,9.77
2023-02-24T22:03:41.642Z,9.32
2023-02-24T22:06:10.668Z,9.02
2023-02-24T22:08:42.914Z,8.68
2023-02-24T22:11:11.784Z,7.80
2023-02-24T22:13:39.604Z,7.88
2023-02-24T22:16:08.179Z,8.27
2023-02-24T22:18:34.924Z,7.85
2023-02-24T22:21:09.271Z,8.00
2023-02-24T22:23:35.866Z,8.52
2023-02-24T22:26:07.415Z,8.05
2023-02-24T22:28:35.075Z,7.07
2023-02-24T22:31:02.415Z,6.32
2023-02-24T22:33:30.101Z,6.18
2023-02-24T22:36:01.564Z,6.05
2023-02-24T22:38:31.792Z,5.85
2023-02-24T22:41:03.340Z,6.78
2023-02-24T22:43:30.093Z,5.85
2023-02-24T22:46:07.696Z,7.53
2023-02-24T22:48:36.209Z,7.82
2023-02-24T22:51:05.077Z,6.78
2023-02-24T22:53:34.263Z,7.60
2023-02-24T22:56:00.601Z,7.00
2023-02-24T22:58:27.373Z,6.90
2023-02-24T23:00:55.055Z,6.30
2023-02-24T23:03:24.961Z,6.95
2023-02-24T23:06:03.562Z,7.25
2023-02-24T23:08:31.734Z,6.25
2023-02-24T23:11:12.209Z,6.32
2023-02-24T23:13:40.300Z,6.88
2023-02-24T23:16:09.949Z,7.07
2023-02-24T23:18:37.127Z,8.98
2023-02-24T23:21:07.917Z,7.18
2023-02-24T23:23:35.910Z,7.78
2023-02-24T23:26:02.916Z,6.15
2023-02-24T23:28:29.406Z,7.07
2023-02-24T23:30:56.213Z,5.53
2023-02-24T23:33:23.016Z,7.05
2023-02-24T23:35:49.761Z,5.00
2023-02-24T23:38:16.274Z,6.00
2023-02-24T23:40:50.178Z,5.63
2023-02-24T23:43:17.962Z,5.90
2023-02-24T23:45:44.659Z,5.55
2023-02-24T23:48:13.761Z,6.38
2023-02-24T23:50:41.609Z,6.10
2023-02-24T23:53:08.833Z,5.72
2023-02-24T23:55:35.583Z,5.43
2023-02-24T23:58:03.284Z,5.97
